Time;durP1;ratioP1;P1;durP2;ratioP2;P2;SDS_P1;SDS_P2;PMS_P1;PMS_P2;Temp;Humidity;BMP_temperature;BMP_pressure;BME280_temperature;BME280_humidity;BME280_pressure;Samples;Min_cycle;Max_cycle;Signal;HPM_P1;HPM_P2
2023/03/09 00:01:25;;;;;;;18.58;10.18;;;3.10;99.90;;;;;;5111486;28;20256;-74
2023/03/09 00:03:51;;;;;;;18.80;10.52;;;3.10;99.90;;;;;;5092779;28;20211;-75
2023/03/09 00:06:17;;;;;;;17.83;10.40;;;3.10;99.90;;;;;;5105407;27;20205;-73
2023/03/09 00:08:43;;;;;;;19.55;9.95;;;3.00;99.90;;;;;;5094750;28;20611;-73
2023/03/09 00:11:10;;;;;;;20.25;10.55;;;3.10;99.90;;;;;;5098188;28;20176;-73
2023/03/09 00:13:36;;;;;;;20.08;11.35;;;3.10;99.90;;;;;;5120573;27;20174;-73
2023/03/09 00:16:28;;;;;;;18.20;11.00;;;3.10;99.90;;;;;;5117712;27;20249;-75
2023/03/09 00:18:57;;;;;;;21.40;11.35;;;3.10;99.90;;;;;;5090685;28;20204;-72
2023/03/09 00:21:41;;;;;;;20.88;10.85;;;3.10;99.90;;;;;;5099582;28;20177;-73
2023/03/09 00:24:18;;;;;;;19.45;10.90;;;3.10;99.90;;;;;;5103511;28;20174;-74
2023/03/09 00:26:49;;;;;;;19.17;10.68;;;3.10;99.90;;;;;;5099112;28;20389;-74
2023/03/09 00:29:15;;;;;;;20.60;11.25;;;3.10;99.90;;;;;;5109200;28;20271;-74
2023/03/09 00:31:42;;;;;;;19.30;11.75;;;3.00;99.90;;;;;;5113496;27;20279;-74
2023/03/09 00:34:08;;;;;;;19.92;11.43;;;3.10;99.90;;;;;;5118619;27;20172;-73
2023/03/09 00:36:35;;;;;;;24.38;12.20;;;3.10;99.90;;;;;;5100429;28;20318;-75
2023/03/09 00:39:01;;;;;;;21.45;11.80;;;3.10;99.90;;;;;;5074883;28;20649;-73
2023/03/09 00:41:30;;;;;;;21.48;11.68;;;3.10;99.90;;;;;;5111500;28;20200;-73
2023/03/09 00:43:57;;;;;;;21.73;13.23;;;3.10;99.90;;;;;;5093390;28;20200;-74
2023/03/09 00:46:23;;;;;;;23.33;12.63;;;3.10;99.90;;;;;;5090073;27;20274;-73
2023/03/09 00:48:49;;;;;;;22.77;12.80;;;3.10;99.90;;;;;;5117769;28;20200;-73
2023/03/09 00:51:15;;;;;;;23.58;13.13;;;3.10;99.90;;;;;;5102536;28;20233;-72
2023/03/09 00:53:41;;;;;;;24.02;12.88;;;3.10;99.90;;;;;;5088490;28;20189;-73
2023/03/09 00:56:12;;;;;;;22.70;13.15;;;3.10;99.90;;;;;;5065153;28;20256;-75
2023/03/09 00:58:38;;;;;;;25.67;13.77;;;3.10;99.90;;;;;;5092797;28;20551;-73
2023/03/09 01:01:11;;;;;;;24.10;13.65;;;3.10;99.90;;;;;;5110443;28;20173;-73
2023/03/09 01:03:39;;;;;;;22.08;13.07;;;3.10;99.90;;;;;;5112715;28;20629;-73
2023/03/09 01:06:06;;;;;;;20.27;12.73;;;3.10;99.90;;;;;;5073618;28;20200;-74
2023/03/09 01:08:32;;;;;;;24.40;13.20;;;3.00;99.90;;;;;;5110302;28;20599;-74
2023/03/09 01:10:58;;;;;;;23.48;13.73;;;3.10;99.90;;;;;;5069174;28;20189;-73
2023/03/09 01:13:24;;;;;;;25.30;13.88;;;3.10;99.90;;;;;;5112305;28;20208;-75
2023/03/09 01:15:50;;;;;;;26.23;13.68;;;3.00;99.90;;;;;;5074367;28;20239;-74
2023/03/09 01:18:16;;;;;;;23.00;12.52;;;3.00;99.90;;;;;;5080711;28;20185;-76
2023/03/09 01:20:42;;;;;;;22.70;12.68;;;3.00;99.90;;;;;;5083465;28;20633;-74
2023/03/09 01:23:08;;;;;;;24.08;12.82;;;3.00;99.90;;;;;;5096094;28;20173;-74
2023/03/09 01:25:34;;;;;;;25.88;13.52;;;3.00;99.90;;;;;;5104995;27;20177;-73
2023/03/09 01:27:59;;;;;;;25.92;13.57;;;3.00;99.90;;;;;;5095451;28;20177;-73
2023/03/09 01:30:25;;;;;;;20.77;13.30;;;3.00;99.90;;;;;;5096918;28;20253;-76
2023/03/09 01:32:51;;;;;;;22.73;13.32;;;3.00;99.90;;;;;;5115494;27;20234;-73
2023/03/09 01:35:17;;;;;;;21.02;13.40;;;2.90;99.90;;;;;;5091665;28;20170;-73
2023/03/09 01:37:43;;;;;;;21.90;13.70;;;2.90;99.90;;;;;;5113937;27;20185;-74
2023/03/09 01:40:16;;;;;;;25.20;13.20;;;2.90;99.90;;;;;;5085812;28;20184;-75
2023/03/09 01:42:41;;;;;;;22.20;12.88;;;2.90;99.90;;;;;;5103469;28;20600;-72
2023/03/09 01:45:19;;;;;;;25.23;13.48;;;2.90;99.90;;;;;;5116065;28;20262;-72
2023/03/09 01:47:46;;;;;;;25.00;13.40;;;2.90;99.90;;;;;;5114132;28;20236;-77
2023/03/09 01:50:14;;;;;;;24.83;14.57;;;2.90;99.90;;;;;;5095855;28;20208;-74
2023/03/09 01:52:42;;;;;;;24.58;13.88;;;2.80;99.90;;;;;;5113609;28;20184;-73
2023/03/09 01:55:11;;;;;;;27.75;13.75;;;2.80;99.90;;;;;;5114652;28;20253;-73
2023/03/09 01:57:42;;;;;;;26.10;14.68;;;2.80;99.90;;;;;;5096512;28;20181;-74
2023/03/09 02:00:15;;;;;;;21.65;13.13;;;2.80;99.90;;;;;;5092975;28;20231;-74
2023/03/09 02:02:46;;;;;;;23.63;14.20;;;2.70;99.90;;;;;;5096628;28;20260;-75
2023/03/09 02:05:23;;;;;;;23.58;14.20;;;2.70;99.90;;;;;;5075660;28;20192;-74
2023/03/09 02:07:51;;;;;;;21.48;12.52;;;2.70;99.90;;;;;;5114291;27;20238;-74
2023/03/09 02:10:28;;;;;;;22.67;12.50;;;2.70;99.90;;;;;;5093606;28;20181;-78
2023/03/09 02:12:58;;;;;;;22.77;13.57;;;2.60;99.90;;;;;;5113324;27;21895;-73
2023/03/09 02:15:25;;;;;;;21.25;13.18;;;2.60;99.90;;;;;;5096617;28;20161;-78
2023/03/09 02:17:51;;;;;;;23.10;13.45;;;2.60;99.90;;;;;;5096741;28;20280;-76
2023/03/09 02:20:53;;;;;;;24.38;12.90;;;2.60;99.90;;;;;;5112868;28;20188;-73
2023/03/09 02:23:28;;;;;;;24.55;13.18;;;2.50;99.90;;;;;;5008282;28;20176;-73
2023/03/09 02:26:20;;;;;;;22.90;12.35;;;2.60;99.90;;;;;;5070966;27;20350;-74
2023/03/09 02:28:48;;;;;;;25.02;13.38;;;2.50;99.90;;;;;;5081787;28;20181;-73
2023/03/09 02:31:14;;;;;;;26.77;14.50;;;2.50;99.90;;;;;;5097715;27;20184;-73
2023/03/09 02:33:41;;;;;;;27.65;14.65;;;2.50;99.90;;;;;;5136011;27;20651;-74
2023/03/09 02:36:07;;;;;;;28.38;14.43;;;2.50;99.90;;;;;;5118242;27;20629;-73
2023/03/09 02:38:37;;;;;;;29.15;15.88;;;2.40;99.90;;;;;;5081017;28;20173;-76
2023/03/09 02:41:09;;;;;;;26.88;14.55;;;2.40;99.90;;;;;;5089554;28;20692;-76
2023/03/09 02:43:41;;;;;;;29.95;15.85;;;2.40;99.90;;;;;;5086223;28;20205;-73
2023/03/09 02:46:07;;;;;;;27.98;14.27;;;2.30;99.90;;;;;;5096916;27;20228;-73
2023/03/09 02:48:36;;;;;;;29.23;15.27;;;2.30;99.90;;;;;;5111357;28;20185;-74
2023/03/09 02:51:02;;;;;;;28.63;14.27;;;2.30;99.90;;;;;;5084249;27;20640;-73
2023/03/09 02:53:28;;;;;;;27.73;14.98;;;2.30;99.90;;;;;;5096515;28;20238;-73
2023/03/09 02:55:55;;;;;;;31.80;15.38;;;2.30;99.90;;;;;;5095441;28;20181;-74
2023/03/09 02:58:21;;;;;;;35.97;16.35;;;2.30;99.90;;;;;;5113875;28;20180;-75
2023/03/09 03:00:49;;;;;;;27.45;15.82;;;2.30;99.90;;;;;;5095283;27;20178;-75
2023/03/09 03:03:18;;;;;;;29.73;14.98;;;2.30;99.90;;;;;;5094363;28;20209;-74
2023/03/09 03:05:45;;;;;;;30.25;16.08;;;2.30;99.90;;;;;;5092327;28;20223;-73
2023/03/09 03:08:11;;;;;;;30.75;15.93;;;2.20;99.90;;;;;;5096264;28;20181;-73
2023/03/09 03:10:37;;;;;;;30.13;16.27;;;2.20;99.90;;;;;;5094326;28;20182;-74
2023/03/09 03:13:02;;;;;;;42.72;16.80;;;2.20;99.90;;;;;;5079564;27;20257;-75
2023/03/09 03:15:28;;;;;;;33.20;16.38;;;2.20;99.90;;;;;;5103942;28;20259;-78
2023/03/09 03:17:54;;;;;;;31.02;16.00;;;2.20;99.90;;;;;;5079684;28;20253;-74
2023/03/09 03:20:21;;;;;;;35.92;17.92;;;2.20;99.90;;;;;;5088528;28;20185;-74
2023/03/09 03:22:47;;;;;;;34.80;17.45;;;2.30;99.90;;;;;;5089326;28;20196;-74
2023/03/09 03:25:16;;;;;;;34.85;17.10;;;2.30;99.90;;;;;;5103853;27;20716;-75
2023/03/09 03:27:45;;;;;;;37.78;19.13;;;2.20;99.90;;;;;;5086100;28;20204;-74
2023/03/09 03:30:12;;;;;;;33.03;16.80;;;2.30;99.90;;;;;;5095098;28;20189;-74
2023/03/09 03:32:40;;;;;;;38.80;16.60;;;2.30;99.90;;;;;;5111897;27;20172;-74
2023/03/09 03:35:07;;;;;;;34.05;17.20;;;2.30;99.90;;;;;;5084899;28;20192;-73
2023/03/09 03:37:38;;;;;;;31.60;16.60;;;2.20;99.90;;;;;;5092671;28;20174;-73
2023/03/09 03:40:08;;;;;;;34.53;17.92;;;2.30;99.90;;;;;;5082580;28;20226;-73
2023/03/09 03:42:34;;;;;;;33.42;17.80;;;2.30;99.90;;;;;;5098582;28;20177;-74
2023/03/09 03:45:00;;;;;;;39.20;18.65;;;2.30;99.90;;;;;;5113049;28;20188;-75
2023/03/09 03:47:26;;;;;;;35.42;16.90;;;2.30;99.90;;;;;;5090345;28;20313;-77
2023/03/09 03:49:52;;;;;;;34.65;18.23;;;2.30;99.90;;;;;;5091443;27;20655;-74
2023/03/09 03:52:18;;;;;;;34.13;18.08;;;2.30;99.90;;;;;;5098291;28;20178;-74
2023/03/09 03:54:44;;;;;;;34.10;18.05;;;2.30;99.90;;;;;;5099813;28;20193;-74
2023/03/09 03:57:10;;;;;;;36.78;18.17;;;2.30;99.90;;;;;;5088480;28;20193;-74
2023/03/09 03:59:36;;;;;;;33.55;18.05;;;2.30;99.90;;;;;;5077895;28;20213;-74
2023/03/09 04:02:02;;;;;;;36.17;18.35;;;2.40;99.90;;;;;;5089616;28;20191;-76
2023/03/09 04:04:29;;;;;;;37.63;19.75;;;2.40;99.90;;;;;;5084487;28;20651;-74
2023/03/09 04:07:00;;;;;;;37.45;19.75;;;2.40;99.90;;;;;;5100245;27;20219;-73
2023/03/09 04:09:26;;;;;;;40.63;19.75;;;2.40;99.90;;;;;;5078510;28;20629;-73
2023/03/09 04:11:52;;;;;;;31.65;17.75;;;2.40;99.90;;;;;;5087451;27;20180;-75
2023/03/09 04:14:18;;;;;;;37.00;19.55;;;2.40;99.90;;;;;;5075121;28;20265;-74
2023/03/09 04:16:44;;;;;;;37.53;20.30;;;2.40;99.90;;;;;;5080589;28;20390;-78
2023/03/09 04:19:10;;;;;;;35.83;20.45;;;2.40;99.90;;;;;;5093230;27;20263;-75
2023/03/09 04:21:38;;;;;;;37.58;19.50;;;2.40;99.90;;;;;;5090879;28;20181;-74
2023/03/09 04:24:05;;;;;;;36.65;18.67;;;2.40;99.90;;;;;;5092995;28;20299;-74
2023/03/09 04:26:31;;;;;;;36.22;20.05;;;2.40;99.90;;;;;;5092495;28;20217;-76
2023/03/09 04:29:06;;;;;;;35.42;18.38;;;2.40;99.90;;;;;;5059558;28;20185;-74
2023/03/09 04:31:32;;;;;;;37.25;19.45;;;2.30;99.90;;;;;;5104686;28;20281;-74
2023/03/09 04:33:59;;;;;;;35.22;19.23;;;2.30;99.90;;;;;;5093710;28;20185;-73
2023/03/09 04:36:25;;;;;;;36.00;19.45;;;2.30;99.90;;;;;;5104259;28;20529;-73
2023/03/09 04:38:52;;;;;;;36.55;19.15;;;2.30;99.90;;;;;;5065086;28;20192;-74
2023/03/09 04:41:19;;;;;;;36.35;19.20;;;2.30;99.90;;;;;;5101470;28;20540;-73
2023/03/09 04:43:50;;;;;;;31.77;17.00;;;2.30;99.90;;;;;;5094309;28;20181;-74
2023/03/09 04:46:17;;;;;;;35.45;18.60;;;2.30;99.90;;;;;;5077814;28;20317;-74
2023/03/09 04:48:43;;;;;;;35.10;18.48;;;2.20;99.90;;;;;;5094729;27;20204;-74
2023/03/09 04:51:09;;;;;;;38.67;19.50;;;2.30;99.90;;;;;;5087321;28;20276;-73
2023/03/09 04:53:35;;;;;;;35.50;18.80;;;2.30;99.90;;;;;;5078050;28;20184;-73
2023/03/09 04:56:01;;;;;;;33.28;18.23;;;2.30;99.90;;;;;;5093398;28;20189;-73
2023/03/09 04:58:29;;;;;;;32.63;18.13;;;2.30;99.90;;;;;;5090305;28;20512;-77
2023/03/09 05:00:55;;;;;;;34.63;18.08;;;2.30;99.90;;;;;;5095116;28;20280;-73
2023/03/09 05:03:22;;;;;;;34.88;18.48;;;2.30;99.90;;;;;;5081845;28;20185;-74
2023/03/09 05:05:52;;;;;;;37.00;18.33;;;2.30;99.90;;;;;;5080409;28;20255;-74
2023/03/09 05:08:21;;;;;;;31.30;17.23;;;2.40;99.90;;;;;;5097021;28;20181;-73
2023/03/09 05:10:47;;;;;;;35.83;18.80;;;2.30;99.90;;;;;;5063491;28;20194;-74
2023/03/09 05:13:15;;;;;;;32.85;18.10;;;2.30;99.90;;;;;;5093385;28;20177;-73
2023/03/09 05:15:41;;;;;;;31.98;18.70;;;2.30;99.90;;;;;;5109531;28;20192;-73
2023/03/09 05:18:08;;;;;;;34.25;17.98;;;2.30;99.90;;;;;;5072907;28;20170;-72
2023/03/09 05:20:37;;;;;;;34.90;18.42;;;2.30;99.90;;;;;;5082522;28;20655;-73
2023/03/09 05:23:04;;;;;;;29.08;16.88;;;2.30;99.90;;;;;;5088333;28;20177;-74
2023/03/09 05:25:31;;;;;;;36.83;18.30;;;2.30;99.90;;;;;;5093553;28;20655;-76
2023/03/09 05:27:57;;;;;;;31.73;16.83;;;2.30;99.90;;;;;;5068199;28;20301;-72
2023/03/09 05:30:28;;;;;;;31.45;16.95;;;2.30;99.90;;;;;;5090326;28;20181;-77
2023/03/09 05:32:54;;;;;;;31.60;17.55;;;2.30;99.90;;;;;;5098086;28;20182;-74
2023/03/09 05:35:22;;;;;;;31.63;17.45;;;2.30;99.90;;;;;;5073767;28;20288;-73
2023/03/09 05:37:48;;;;;;;33.17;17.60;;;2.30;99.90;;;;;;5097836;28;20191;-75
2023/03/09 05:40:22;;;;;;;35.15;17.55;;;2.30;99.90;;;;;;5103019;28;20195;-74
2023/03/09 05:42:51;;;;;;;33.70;17.70;;;2.30;99.90;;;;;;5082729;28;20192;-73
2023/03/09 05:45:17;;;;;;;36.95;18.58;;;2.20;99.90;;;;;;5097891;28;20267;-76
2023/03/09 05:47:43;;;;;;;35.08;18.02;;;2.30;99.90;;;;;;5089024;28;20228;-76
2023/03/09 05:50:09;;;;;;;35.95;18.05;;;2.20;99.90;;;;;;5070265;28;20197;-73
2023/03/09 05:52:38;;;;;;;34.90;17.05;;;2.20;99.90;;;;;;5082052;28;20177;-74
2023/03/09 05:55:04;;;;;;;34.67;17.38;;;2.20;99.90;;;;;;5114322;28;20685;-74
2023/03/09 05:57:31;;;;;;;35.67;18.15;;;2.20;99.90;;;;;;5100769;28;20675;-74
2023/03/09 05:59:57;;;;;;;32.65;17.13;;;2.20;99.90;;;;;;5093588;28;20177;-74
2023/03/09 06:02:24;;;;;;;30.90;17.25;;;2.20;99.90;;;;;;5076636;28;20189;-76
2023/03/09 06:04:51;;;;;;;32.28;17.52;;;2.20;99.90;;;;;;5097728;28;20212;-77
2023/03/09 06:07:17;;;;;;;34.38;17.42;;;2.20;99.90;;;;;;5092401;28;20212;-74
2023/03/09 06:09:47;;;;;;;30.27;16.02;;;2.20;99.90;;;;;;5096984;27;20554;-74
2023/03/09 06:12:18;;;;;;;32.20;17.05;;;2.20;99.90;;;;;;5089322;27;20185;-77
2023/03/09 06:14:48;;;;;;;30.88;16.92;;;2.20;99.90;;;;;;5132839;27;20200;-72
2023/03/09 06:17:15;;;;;;;28.98;16.58;;;2.20;99.90;;;;;;5101070;28;20632;-74
2023/03/09 06:19:42;;;;;;;33.90;16.98;;;2.20;99.90;;;;;;5095850;28;20194;-74
2023/03/09 06:22:08;;;;;;;30.92;17.30;;;2.20;99.90;;;;;;5090979;28;20169;-74
2023/03/09 06:24:35;;;;;;;30.63;16.95;;;2.20;99.90;;;;;;5114604;28;20208;-74
2023/03/09 06:27:03;;;;;;;34.42;17.60;;;2.10;99.90;;;;;;5100589;28;20695;-74
2023/03/09 06:29:32;;;;;;;33.85;17.80;;;2.10;99.90;;;;;;5096584;28;20181;-74
2023/03/09 06:31:59;;;;;;;32.28;17.42;;;2.10;99.90;;;;;;5093757;28;20548;-74
2023/03/09 06:34:31;;;;;;;28.77;16.60;;;2.10;99.90;;;;;;5076659;27;20200;-73
2023/03/09 06:37:01;;;;;;;31.95;17.08;;;2.10;99.90;;;;;;5092396;27;20188;-74
2023/03/09 06:39:27;;;;;;;31.20;17.42;;;2.10;99.90;;;;;;5097749;27;20292;-73
2023/03/09 06:41:53;;;;;;;30.00;17.00;;;2.10;99.90;;;;;;5117331;27;20189;-74
2023/03/09 06:44:26;;;;;;;27.77;16.45;;;2.20;99.90;;;;;;5084185;27;20181;-73
2023/03/09 06:46:53;;;;;;;31.10;15.82;;;2.20;99.90;;;;;;5111935;27;20242;-73
2023/03/09 06:49:21;;;;;;;31.88;16.40;;;2.20;99.90;;;;;;5077754;27;20185;-73
2023/03/09 06:51:47;;;;;;;31.27;15.93;;;2.20;99.90;;;;;;5070971;28;20553;-73
2023/03/09 06:54:15;;;;;;;35.30;17.40;;;2.20;99.90;;;;;;5096382;28;20177;-73
2023/03/09 06:56:45;;;;;;;31.23;16.95;;;2.20;99.90;;;;;;5095280;28;20189;-72
2023/03/09 06:59:11;;;;;;;32.83;17.63;;;2.20;99.90;;;;;;5094397;27;20386;-75
2023/03/09 07:01:37;;;;;;;31.98;16.90;;;2.20;99.90;;;;;;5087795;27;20203;-74
2023/03/09 07:04:03;;;;;;;32.20;17.30;;;2.30;99.90;;;;;;5109437;28;20650;-74
2023/03/09 07:06:30;;;;;;;30.55;16.60;;;2.30;99.90;;;;;;5083594;27;20204;-74
2023/03/09 07:08:56;;;;;;;31.08;17.17;;;2.30;99.90;;;;;;5096260;28;20636;-74
2023/03/09 07:11:22;;;;;;;30.33;16.75;;;2.40;99.90;;;;;;5101804;27;20185;-74
2023/03/09 07:13:47;;;;;;;34.20;18.05;;;2.30;99.90;;;;;;5083688;27;20184;-74
2023/03/09 07:16:13;;;;;;;30.98;16.55;;;2.40;99.90;;;;;;5102847;27;20191;-75
2023/03/09 07:18:39;;;;;;;29.05;16.00;;;2.40;99.90;;;;;;5108314;27;20567;-73
2023/03/09 07:21:05;;;;;;;29.95;16.30;;;2.40;99.90;;;;;;5099152;27;20268;-74
2023/03/09 07:23:31;;;;;;;28.80;16.17;;;2.40;99.90;;;;;;5115361;27;20181;-74
2023/03/09 07:26:02;;;;;;;28.35;15.93;;;2.50;99.90;;;;;;5104658;27;20180;-74
2023/03/09 07:28:28;;;;;;;30.75;16.27;;;2.60;99.90;;;;;;5101089;27;20272;-77
2023/03/09 07:30:54;;;;;;;28.92;15.90;;;2.60;99.90;;;;;;5096075;27;20185;-74
2023/03/09 07:33:20;;;;;;;27.23;15.90;;;2.70;99.90;;;;;;5099546;28;20268;-75
2023/03/09 07:35:46;;;;;;;28.23;15.18;;;2.90;99.90;;;;;;5112942;27;20196;-73
2023/03/09 07:38:11;;;;;;;30.00;17.38;;;3.10;99.90;;;;;;5121126;27;20180;-73
2023/03/09 07:40:37;;;;;;;31.13;16.35;;;3.20;99.90;;;;;;5091295;28;22214;-75
2023/03/09 07:43:03;;;;;;;23.73;14.75;;;3.30;99.90;;;;;;5113895;27;20228;-73
2023/03/09 07:45:40;;;;;;;22.05;13.55;;;3.40;99.90;;;;;;5093287;28;20284;-74
2023/03/09 07:48:07;;;;;;;22.98;14.18;;;3.50;99.90;;;;;;5093761;28;20241;-73
2023/03/09 07:50:33;;;;;;;28.02;15.68;;;3.50;99.90;;;;;;5094324;28;20201;-82
2023/03/09 07:52:59;;;;;;;27.45;14.80;;;3.60;99.90;;;;;;5079521;28;20259;-73
2023/03/09 07:55:26;;;;;;;25.75;14.90;;;3.60;99.90;;;;;;5094894;28;20181;-74
2023/03/09 07:57:52;;;;;;;25.08;14.48;;;3.80;99.90;;;;;;5095475;28;20193;-73
2023/03/09 08:00:22;;;;;;;26.35;14.45;;;4.00;99.90;;;;;;5113782;28;20234;-72
2023/03/09 08:02:48;;;;;;;21.92;13.73;;;4.10;99.90;;;;;;5084400;27;20668;-75
2023/03/09 08:05:15;;;;;;;22.83;14.02;;;4.30;99.90;;;;;;5123013;27;20192;-73
2023/03/09 08:07:42;;;;;;;24.75;14.55;;;4.40;99.90;;;;;;5130493;27;20333;-73
2023/03/09 08:10:08;;;;;;;24.75;13.60;;;4.40;99.90;;;;;;5134040;27;20192;-76
2023/03/09 08:12:34;;;;;;;20.55;13.30;;;4.50;99.90;;;;;;5113051;27;20207;-73
2023/03/09 08:15:01;;;;;;;23.52;14.43;;;4.60;99.90;;;;;;5106008;28;20260;-72
2023/03/09 08:17:27;;;;;;;20.17;12.63;;;4.60;99.90;;;;;;5112263;28;20189;-74
2023/03/09 08:19:53;;;;;;;23.90;12.85;;;4.60;99.90;;;;;;5112716;28;20173;-73
2023/03/09 08:22:19;;;;;;;20.17;12.50;;;4.60;99.90;;;;;;5093942;28;20178;-73
2023/03/09 08:24:45;;;;;;;22.60;13.15;;;4.70;99.90;;;;;;5108031;27;20654;-75
2023/03/09 08:27:11;;;;;;;23.58;12.35;;;4.80;99.90;;;;;;5129812;27;20208;-73
2023/03/09 08:29:36;;;;;;;17.48;12.32;;;4.80;99.90;;;;;;5115402;27;20275;-74
2023/03/09 08:32:07;;;;;;;18.17;11.75;;;4.80;99.90;;;;;;5123019;27;20237;-79
2023/03/09 08:34:32;;;;;;;18.75;11.85;;;4.80;99.90;;;;;;5103894;27;20184;-79
2023/03/09 08:36:58;;;;;;;18.15;12.13;;;4.90;99.90;;;;;;5089211;28;20185;-74
2023/03/09 08:39:24;;;;;;;20.23;12.00;;;4.90;99.90;;;;;;5113207;28;20173;-74
2023/03/09 08:41:50;;;;;;;18.23;11.65;;;5.00;99.90;;;;;;5093954;28;20276;-74
2023/03/09 08:44:15;;;;;;;19.42;11.88;;;5.10;99.90;;;;;;5090219;28;20176;-74
2023/03/09 08:46:41;;;;;;;19.75;12.27;;;5.20;99.90;;;;;;5104689;28;20753;-73
2023/03/09 08:49:07;;;;;;;18.27;11.02;;;5.20;99.90;;;;;;5094999;28;20177;-74
2023/03/09 08:51:33;;;;;;;16.02;10.57;;;5.30;99.90;;;;;;5111487;28;20227;-74
2023/03/09 08:53:59;;;;;;;17.98;11.70;;;5.40;99.90;;;;;;5109928;28;20182;-74
2023/03/09 08:56:24;;;;;;;15.48;11.10;;;5.50;99.90;;;;;;5127545;28;20529;-73
2023/03/09 08:58:51;;;;;;;17.15;10.73;;;5.50;99.90;;;;;;5108492;28;20177;-74
2023/03/09 09:01:17;;;;;;;17.33;11.38;;;5.60;99.90;;;;;;5117418;28;20508;-74
2023/03/09 09:03:43;;;;;;;18.60;11.40;;;5.70;99.90;;;;;;5099258;28;20264;-74
2023/03/09 09:06:12;;;;;;;15.73;10.60;;;5.80;99.90;;;;;;5080700;28;20213;-74
2023/03/09 09:08:39;;;;;;;15.60;10.50;;;5.80;99.90;;;;;;5107412;28;20267;-74
2023/03/09 09:11:13;;;;;;;17.85;10.93;;;5.90;99.90;;;;;;5126124;28;20185;-73
2023/03/09 09:13:39;;;;;;;16.08;10.25;;;5.90;99.90;;;;;;5112905;28;20192;-73
2023/03/09 09:16:10;;;;;;;16.88;10.88;;;5.90;99.90;;;;;;5103096;28;20259;-72
2023/03/09 09:18:36;;;;;;;16.83;10.55;;;6.00;99.90;;;;;;5101341;28;20218;-74
2023/03/09 09:21:07;;;;;;;15.88;10.23;;;6.00;99.90;;;;;;5093228;28;20181;-73
2023/03/09 09:23:38;;;;;;;16.95;10.48;;;6.00;99.90;;;;;;5110933;28;20181;-74
2023/03/09 09:26:05;;;;;;;14.82;10.48;;;6.00;99.90;;;;;;5080055;28;20207;-74
2023/03/09 09:28:31;;;;;;;15.10;10.82;;;6.00;99.90;;;;;;5111388;28;20213;-74
2023/03/09 09:31:01;;;;;;;15.63;10.13;;;6.10;99.90;;;;;;5087619;28;20180;-74
2023/03/09 09:33:28;;;;;;;15.15;10.35;;;6.20;99.90;;;;;;5124065;28;20181;-72
2023/03/09 09:36:10;;;;;;;17.42;11.10;;;6.50;99.90;;;;;;5081890;28;20185;-74
2023/03/09 09:38:37;;;;;;;15.90;10.65;;;6.80;99.90;;;;;;5118535;28;20190;-77
2023/03/09 09:41:42;;;;;;;17.13;11.15;;;7.00;99.90;;;;;;5119318;28;20177;-73
2023/03/09 09:44:18;;;;;;;13.65;9.35;;;7.10;99.90;;;;;;5113427;28;20224;-74
2023/03/09 09:46:45;;;;;;;14.05;9.50;;;7.20;99.90;;;;;;5107676;27;20236;-80
2023/03/09 09:49:19;;;;;;;15.82;9.88;;;7.30;99.90;;;;;;5083954;28;20525;-73
2023/03/09 09:52:10;;;;;;;14.85;9.30;;;7.30;99.90;;;;;;5119773;27;20205;-77
2023/03/09 09:55:04;;;;;;;14.43;9.23;;;7.50;99.90;;;;;;5096315;28;20242;-74
2023/03/09 09:57:43;;;;;;;14.70;8.85;;;7.70;99.90;;;;;;5105671;27;20183;-74
2023/03/09 10:00:14;;;;;;;12.68;8.63;;;7.90;99.90;;;;;;5117176;27;20193;-74
2023/03/09 10:02:52;;;;;;;11.88;8.52;;;8.10;99.90;;;;;;5114842;28;20177;-74
2023/03/09 10:05:53;;;;;;;13.07;8.75;;;8.40;99.90;;;;;;5115752;28;20219;-74
2023/03/09 10:08:34;;;;;;;12.43;8.68;;;8.60;99.90;;;;;;5108366;28;20190;-78
2023/03/09 10:11:19;;;;;;;11.05;7.85;;;8.90;99.90;;;;;;5104842;27;20176;-74
2023/03/09 10:13:49;;;;;;;9.57;7.03;;;9.20;99.90;;;;;;5136241;27;20209;-74
2023/03/09 10:16:29;;;;;;;10.70;7.13;;;9.30;99.90;;;;;;5117497;27;20209;-74
2023/03/09 10:18:58;;;;;;;10.02;7.07;;;9.50;99.90;;;;;;5097108;28;20625;-74
2023/03/09 10:21:48;;;;;;;10.30;7.03;;;9.50;99.90;;;;;;5120030;27;20190;-73
2023/03/09 10:24:21;;;;;;;11.38;7.35;;;9.40;99.90;;;;;;5103841;27;20269;-73
2023/03/09 10:26:55;;;;;;;11.38;6.75;;;9.10;99.90;;;;;;5112008;27;20211;-73
2023/03/09 10:29:38;;;;;;;10.68;7.25;;;8.90;99.90;;;;;;5128604;27;20624;-74
2023/03/09 10:32:13;;;;;;;9.38;6.30;;;8.80;99.90;;;;;;5113578;28;20188;-73
2023/03/09 10:34:57;;;;;;;9.52;5.97;;;8.80;99.90;;;;;;5101722;28;20188;-78
2023/03/09 10:37:25;;;;;;;9.07;5.53;;;8.90;99.90;;;;;;5124463;27;20283;-72
2023/03/09 10:39:51;;;;;;;7.72;5.85;;;8.80;99.90;;;;;;5131131;27;20185;-73
2023/03/09 10:42:23;;;;;;;7.50;5.20;;;8.80;99.90;;;;;;5126707;27;20229;-76
2023/03/09 10:45:21;;;;;;;9.07;5.72;;;8.60;99.90;;;;;;5109594;27;20275;-73
2023/03/09 10:48:05;;;;;;;10.07;5.78;;;8.40;99.90;;;;;;5125279;27;20232;-73
2023/03/09 10:50:37;;;;;;;12.48;6.78;;;8.20;99.90;;;;;;5096163;28;20158;-77
2023/03/09 10:53:27;;;;;;;9.82;6.45;;;8.00;99.90;;;;;;5109842;27;20254;-73
2023/03/09 10:55:57;;;;;;;9.25;5.95;;;7.80;99.90;;;;;;5095948;28;20208;-73
2023/03/09 10:58:23;;;;;;;10.50;6.55;;;7.70;99.90;;;;;;5097519;27;20285;-74
2023/03/09 11:01:00;;;;;;;11.15;6.55;;;7.70;99.90;;;;;;5111046;28;20177;-75
2023/03/09 11:03:30;;;;;;;15.25;8.88;;;7.70;99.90;;;;;;5079648;28;20520;-74
2023/03/09 11:06:37;;;;;;;10.73;6.43;;;7.70;99.90;;;;;;5113028;28;20173;-73
2023/03/09 11:09:10;;;;;;;9.60;6.60;;;7.60;99.90;;;;;;5098372;28;20204;-73
2023/03/09 11:11:36;;;;;;;9.98;6.25;;;7.70;99.90;;;;;;5105310;28;20702;-73
2023/03/09 11:14:02;;;;;;;10.05;6.75;;;7.70;99.90;;;;;;5113346;28;20181;-73
2023/03/09 11:16:36;;;;;;;9.10;6.85;;;7.70;99.90;;;;;;5119613;27;20184;-72
2023/03/09 11:19:14;;;;;;;10.10;6.72;;;7.60;99.90;;;;;;5113334;27;20168;-73
2023/03/09 11:21:59;;;;;;;10.75;7.18;;;7.50;99.90;;;;;;5098863;28;20187;-73
2023/03/09 11:24:32;;;;;;;14.32;7.28;;;7.40;99.90;;;;;;5114459;28;20633;-74
2023/03/09 11:27:05;;;;;;;10.23;6.80;;;7.30;99.90;;;;;;5095635;28;20291;-73
2023/03/09 11:29:40;;;;;;;9.60;6.85;;;7.20;99.90;;;;;;5093972;28;20173;-76
2023/03/09 11:32:12;;;;;;;9.43;6.60;;;7.20;99.90;;;;;;5105518;27;20172;-73
2023/03/09 11:34:41;;;;;;;10.20;6.53;;;7.20;99.90;;;;;;5114216;28;20170;-73
2023/03/09 11:37:21;;;;;;;10.02;7.30;;;7.10;99.90;;;;;;5116880;27;20188;-73
2023/03/09 11:39:53;;;;;;;11.48;7.38;;;7.10;99.90;;;;;;5122863;27;20275;-74
2023/03/09 11:42:30;;;;;;;9.98;6.72;;;7.20;99.90;;;;;;5079534;28;20189;-74
2023/03/09 11:44:55;;;;;;;9.43;6.30;;;7.10;99.90;;;;;;5081114;28;20188;-79
2023/03/09 11:47:32;;;;;;;9.27;7.00;;;7.10;99.90;;;;;;5072840;28;20238;-74
2023/03/09 11:50:05;;;;;;;13.20;7.03;;;7.00;99.90;;;;;;5093997;28;20164;-74
2023/03/09 11:52:39;;;;;;;15.38;6.60;;;7.00;99.90;;;;;;5110736;27;20177;-74
2023/03/09 11:55:15;;;;;;;9.45;6.85;;;7.00;99.90;;;;;;5095264;28;20311;-75
2023/03/09 11:57:46;;;;;;;8.85;6.72;;;7.00;99.90;;;;;;5121834;27;20690;-73
2023/03/09 12:00:16;;;;;;;10.50;6.88;;;7.00;99.90;;;;;;5134614;27;20168;-75
2023/03/09 12:03:13;;;;;;;11.20;6.63;;;7.00;99.90;;;;;;5095395;28;20182;-75
2023/03/09 12:05:46;;;;;;;9.40;6.43;;;6.90;99.90;;;;;;5093933;28;20177;-73
2023/03/09 12:08:26;;;;;;;13.50;7.75;;;6.90;99.90;;;;;;5101779;28;20618;-73
2023/03/09 12:11:12;;;;;;;10.80;6.72;;;6.80;99.90;;;;;;5093638;28;20200;-74
2023/03/09 12:13:54;;;;;;;9.93;6.32;;;6.80;99.90;;;;;;5094477;28;20181;-74
2023/03/09 12:16:35;;;;;;;11.10;6.78;;;6.80;99.90;;;;;;5111853;28;20244;-74
2023/03/09 12:19:10;;;;;;;8.80;6.20;;;6.70;99.90;;;;;;5113540;28;20161;-73
2023/03/09 12:21:41;;;;;;;9.82;6.50;;;6.70;99.90;;;;;;5093734;28;20200;-73
2023/03/09 12:24:39;;;;;;;10.32;6.50;;;6.70;99.90;;;;;;5104739;28;20177;-78
2023/03/09 12:27:16;;;;;;;10.38;6.22;;;6.80;99.90;;;;;;5100438;27;20228;-73
2023/03/09 12:29:52;;;;;;;11.02;6.78;;;6.70;99.90;;;;;;5093651;28;20570;-73
2023/03/09 12:32:28;;;;;;;10.35;6.53;;;6.70;99.90;;;;;;5112361;28;20180;-73
2023/03/09 12:35:20;;;;;;;11.98;6.28;;;6.70;99.90;;;;;;5085581;28;20169;-74
2023/03/09 12:37:46;;;;;;;9.10;6.57;;;6.70;99.90;;;;;;5111616;27;20185;-74
2023/03/09 12:40:27;;;;;;;9.27;6.70;;;6.70;99.90;;;;;;5094380;28;20184;-74
2023/03/09 12:42:56;;;;;;;9.40;7.25;;;6.60;99.90;;;;;;5114702;27;20272;-77
2023/03/09 12:45:30;;;;;;;12.10;6.97;;;6.60;99.90;;;;;;5108653;27;20180;-73
2023/03/09 12:48:04;;;;;;;8.95;6.32;;;6.60;99.90;;;;;;5091572;28;20654;-73
2023/03/09 12:50:42;;;;;;;9.73;7.00;;;6.60;99.90;;;;;;5099389;28;20185;-74
2023/03/09 12:53:18;;;;;;;13.57;7.38;;;6.50;99.90;;;;;;5095976;28;20193;-74
2023/03/09 12:55:46;;;;;;;12.10;7.57;;;6.50;99.90;;;;;;5093432;28;20208;-73